createdAt,value
2022-11-11T00:01:17.980Z,6.78
2022-11-11T00:03:44.854Z,6.77
2022-11-11T00:06:16.501Z,6.77
2022-11-11T00:08:47.302Z,6.77
2022-11-11T00:11:15.308Z,6.79
2022-11-11T00:13:43.875Z,6.78
2022-11-11T00:16:13.318Z,6.77
2022-11-11T00:19:00.439Z,6.80
2022-11-11T00:21:46.158Z,6.89
2022-11-11T00:24:46.608Z,6.96
2022-11-11T00:27:15.083Z,7.05
2022-11-11T00:29:46.642Z,7.11
2022-11-11T00:32:31.220Z,7.22
2022-11-11T00:35:18.269Z,7.36
2022-11-11T00:37:46.867Z,7.47
2022-11-11T00:40:14.741Z,7.54
2022-11-11T00:42:42.115Z,7.61
2022-11-11T00:45:10.004Z,7.67
2022-11-11T00:47:55.272Z,7.72
2022-11-11T00:50:47.838Z,7.74
2022-11-11T00:53:21.566Z,7.75
2022-11-11T00:55:52.622Z,7.73
2022-11-11T00:58:19.460Z,7.74
2022-11-11T01:00:47.315Z,7.76
2022-11-11T01:03:14.063Z,7.72
2022-11-11T01:05:40.895Z,7.74
2022-11-11T01:08:07.965Z,7.75
2022-11-11T01:10:43.261Z,7.76
2022-11-11T01:13:15.120Z,7.77
2022-11-11T01:15:44.998Z,7.76
2022-11-11T01:18:14.523Z,7.73
2022-11-11T01:20:41.850Z,7.62
2022-11-11T01:23:10.277Z,7.58
2022-11-11T01:25:39.510Z,7.51
2022-11-11T01:28:07.165Z,7.45
2022-11-11T01:30:36.088Z,7.44
2022-11-11T01:33:03.165Z,7.36
2022-11-11T01:35:30.524Z,7.32
2022-11-11T01:37:59.340Z,7.29
2022-11-11T01:40:26.774Z,7.22
2022-11-11T01:43:06.388Z,7.17
2022-11-11T01:45:51.700Z,7.08
2022-11-11T01:48:43.315Z,7.06
2022-11-11T01:51:21.467Z,7.05
2022-11-11T01:53:54.777Z,6.98
2022-11-11T01:56:22.647Z,6.99
2022-11-11T01:58:54.180Z,6.99
2022-11-11T02:01:21.281Z,7.00
2022-11-11T02:04:08.852Z,7.01
2022-11-11T02:06:38.381Z,6.99
2022-11-11T02:09:06.159Z,6.92
2022-11-11T02:11:55.102Z,6.94
2022-11-11T02:14:37.631Z,6.94
2022-11-11T02:17:08.120Z,6.89
2022-11-11T02:19:45.613Z,6.85
2022-11-11T02:22:19.655Z,6.74
2022-11-11T02:24:46.634Z,6.61
2022-11-11T02:27:17.243Z,6.49
2022-11-11T02:29:48.701Z,6.43
2022-11-11T02:32:15.851Z,6.35
2022-11-11T02:34:42.772Z,6.30
2022-11-11T02:37:10.670Z,6.28
2022-11-11T02:40:02.450Z,6.28
2022-11-11T02:42:31.231Z,6.29
2022-11-11T02:44:59.482Z,6.26
2022-11-11T02:47:27.353Z,6.27
2022-11-11T02:49:54.599Z,6.26
2022-11-11T02:52:22.044Z,6.25
2022-11-11T02:54:49.489Z,6.27
2022-11-11T02:57:17.800Z,6.31
2022-11-11T02:59:44.836Z,6.34
2022-11-11T03:02:12.283Z,6.35
2022-11-11T03:04:39.553Z,6.42
2022-11-11T03:07:06.822Z,6.55
2022-11-11T03:09:34.684Z,6.68
2022-11-11T03:12:01.621Z,6.79
2022-11-11T03:14:28.865Z,6.94
2022-11-11T03:17:14.713Z,7.04
2022-11-11T03:19:41.712Z,7.15
2022-11-11T03:25:14.080Z,7.29
2022-11-11T03:27:42.262Z,7.41
2022-11-11T03:30:09.506Z,7.53
2022-11-11T03:32:36.527Z,7.53
2022-11-11T03:35:03.336Z,7.58
2022-11-11T03:37:48.838Z,7.63
2022-11-11T03:40:16.036Z,7.67
2022-11-11T03:42:44.062Z,7.72
2022-11-11T03:45:11.148Z,7.72
2022-11-11T03:47:38.015Z,7.76
2022-11-11T03:50:05.491Z,7.80
2022-11-11T03:52:32.275Z,7.78
2022-11-11T03:54:59.258Z,7.81
2022-11-11T03:57:31.866Z,7.85
2022-11-11T03:59:58.873Z,7.88
2022-11-11T04:02:44.197Z,7.86
2022-11-11T04:05:29.506Z,7.89
2022-11-11T04:08:15.134Z,7.91
2022-11-11T04:10:41.832Z,7.93
2022-11-11T04:13:27.820Z,7.94
2022-11-11T04:16:06.553Z,7.95
2022-11-11T04:18:56.365Z,7.98
2022-11-11T04:21:43.320Z,7.97
2022-11-11T04:24:35.046Z,7.98
2022-11-11T04:27:07.739Z,7.97
2022-11-11T04:29:35.455Z,7.97
2022-11-11T04:32:32.051Z,7.93
2022-11-11T04:35:01.275Z,7.91
2022-11-11T04:37:31.706Z,7.92
2022-11-11T04:40:17.764Z,7.91
2022-11-11T04:42:44.566Z,7.92
2022-11-11T04:45:28.392Z,7.96
2022-11-11T04:48:05.816Z,7.94
2022-11-11T04:50:36.712Z,7.87
2022-11-11T04:53:05.927Z,7.90
2022-11-11T04:55:51.887Z,7.86
2022-11-11T04:58:21.779Z,7.82
2022-11-11T05:00:48.830Z,7.84
2022-11-11T05:03:16.603Z,7.78
2022-11-11T05:06:06.928Z,7.74
2022-11-11T05:08:53.831Z,7.70
2022-11-11T05:11:34.736Z,7.63
2022-11-11T05:14:22.230Z,7.60
2022-11-11T05:17:10.598Z,7.50
2022-11-11T05:19:56.528Z,7.53
2022-11-11T05:22:27.865Z,7.55
2022-11-11T05:25:13.235Z,7.55
2022-11-11T05:27:40.720Z,7.53
2022-11-11T05:30:10.118Z,7.50
2022-11-11T05:32:37.979Z,7.46
2022-11-11T05:35:05.767Z,7.41
2022-11-11T05:37:32.745Z,7.36
2022-11-11T05:39:59.804Z,7.31
2022-11-11T05:42:26.926Z,7.29
2022-11-11T05:44:54.114Z,7.31
2022-11-11T05:47:20.931Z,7.33
2022-11-11T05:49:47.934Z,7.36
2022-11-11T05:52:16.580Z,7.41
2022-11-11T05:54:43.881Z,7.42
2022-11-11T05:57:11.460Z,7.43
2022-11-11T05:59:38.204Z,7.44
2022-11-11T06:02:05.342Z,7.39
2022-11-11T06:04:34.534Z,7.34
2022-11-11T06:07:01.299Z,7.29
2022-11-11T06:09:28.364Z,7.27
2022-11-11T06:11:55.132Z,7.29
2022-11-11T06:14:21.897Z,7.31
2022-11-11T06:16:48.968Z,7.33
2022-11-11T06:19:15.745Z,7.34
2022-11-11T06:21:57.215Z,7.41
2022-11-11T06:24:26.685Z,7.48
2022-11-11T06:26:55.497Z,7.86
2022-11-11T06:29:23.332Z,8.43
2022-11-11T06:31:50.066Z,9.10
2022-11-11T06:34:17.111Z,9.64
2022-11-11T06:36:44.274Z,10.21
2022-11-11T06:39:11.040Z,10.64
2022-11-11T06:41:38.065Z,10.96
2022-11-11T06:44:05.013Z,11.30
2022-11-11T06:46:32.190Z,11.55
2022-11-11T06:48:59.033Z,11.93
2022-11-11T06:51:26.094Z,12.12
2022-11-11T06:53:52.901Z,12.32
2022-11-11T06:56:19.624Z,12.45
2022-11-11T06:58:46.766Z,12.59
2022-11-11T07:01:14.122Z,12.80
2022-11-11T07:03:41.361Z,12.99
2022-11-11T07:06:08.274Z,13.07
2022-11-11T07:08:35.485Z,13.31
2022-11-11T07:11:09.333Z,13.54
2022-11-11T07:13:39.828Z,13.74
2022-11-11T07:16:06.832Z,13.86
2022-11-11T07:18:33.846Z,14.11
2022-11-11T07:21:00.593Z,14.18
2022-11-11T07:23:27.697Z,14.14
2022-11-11T07:25:54.411Z,14.47
2022-11-11T07:28:21.568Z,14.61
2022-11-11T07:30:48.545Z,14.82
2022-11-11T07:33:19.029Z,15.29
2022-11-11T07:35:48.797Z,15.54
2022-11-11T07:38:15.929Z,15.80
2022-11-11T07:40:42.720Z,15.92
2022-11-11T07:43:09.721Z,16.32
2022-11-11T07:45:36.424Z,16.68
2022-11-11T07:48:03.513Z,16.66
2022-11-11T07:50:30.321Z,16.06
2022-11-11T07:52:57.410Z,15.34
2022-11-11T07:55:24.186Z,14.71
2022-11-11T07:57:54.311Z,14.12
2022-11-11T08:00:21.187Z,13.55
2022-11-11T08:02:49.472Z,13.15
2022-11-11T08:05:16.994Z,12.93
2022-11-11T08:07:44.046Z,12.72
2022-11-11T08:10:12.156Z,12.52
2022-11-11T08:12:57.453Z,12.38
2022-11-11T08:15:24.217Z,12.26
2022-11-11T08:17:51.289Z,12.21
2022-11-11T08:20:18.425Z,12.09
2022-11-11T08:23:06.986Z,12.09
2022-11-11T08:25:32.431Z,11.94
2022-11-11T08:28:01.282Z,11.89
2022-11-11T08:30:28.398Z,11.81
2022-11-11T08:33:43.653Z,11.74
2022-11-11T08:35:50.338Z,11.69
2022-11-11T08:38:17.133Z,11.62
2022-11-11T08:40:43.893Z,11.51
2022-11-11T08:43:10.972Z,11.45
2022-11-11T08:45:38.145Z,11.39
2022-11-11T08:48:05.603Z,11.33
2022-11-11T08:50:32.360Z,11.29
2022-11-11T08:52:59.409Z,11.26
2022-11-11T08:55:26.192Z,11.26
2022-11-11T08:58:01.334Z,11.23
2022-11-11T09:00:28.347Z,11.28
2022-11-11T09:03:00.140Z,11.41
2022-11-11T09:05:26.952Z,11.53
2022-11-11T09:07:54.138Z,11.65
2022-11-11T09:10:21.139Z,11.81
2022-11-11T09:12:47.914Z,11.86
2022-11-11T09:15:14.929Z,11.89
2022-11-11T09:17:47.593Z,11.96
2022-11-11T09:20:14.925Z,12.09
2022-11-11T09:22:46.110Z,12.01
2022-11-11T09:25:13.971Z,12.09
2022-11-11T09:27:41.225Z,12.23
2022-11-11T09:30:10.362Z,12.51
2022-11-11T09:32:37.462Z,12.67
2022-11-11T09:35:04.889Z,12.78
2022-11-11T09:37:31.646Z,12.76
2022-11-11T09:39:58.757Z,12.66
2022-11-11T09:42:43.852Z,12.57
2022-11-11T09:45:13.903Z,12.44
2022-11-11T09:48:13.458Z,12.30
2022-11-11T09:50:43.527Z,12.18
2022-11-11T09:53:40.619Z,12.03
2022-11-11T09:56:30.669Z,11.98
2022-11-11T09:59:04.356Z,12.05
2022-11-11T10:01:50.247Z,12.24
2022-11-11T10:04:26.862Z,12.41
2022-11-11T10:07:18.747Z,12.42
2022-11-11T10:10:00.667Z,12.43
2022-11-11T10:12:43.158Z,12.40
2022-11-11T10:15:13.884Z,12.50
2022-11-11T10:17:53.069Z,12.53
2022-11-11T10:20:30.734Z,12.68
2022-11-11T10:23:14.433Z,13.19
2022-11-11T10:26:08.196Z,14.02
2022-11-11T10:28:39.527Z,14.71
2022-11-11T10:31:15.696Z,14.92
2022-11-11T10:33:51.196Z,15.34
2022-11-11T10:36:20.621Z,15.48
2022-11-11T10:38:55.652Z,15.41
2022-11-11T10:41:46.648Z,15.24
2022-11-11T10:44:28.612Z,14.88
2022-11-11T10:47:06.911Z,14.48
2022-11-11T10:49:39.181Z,14.14
2022-11-11T10:52:30.895Z,13.90
2022-11-11T10:55:16.816Z,13.70
2022-11-11T10:58:25.172Z,13.75
2022-11-11T11:00:55.665Z,13.61
2022-11-11T11:03:29.415Z,13.64
2022-11-11T11:06:25.698Z,13.73
2022-11-11T11:09:09.186Z,13.76
2022-11-11T11:11:42.084Z,13.65
2022-11-11T11:14:19.777Z,13.66
2022-11-11T11:16:55.560Z,13.66
2022-11-11T11:19:25.039Z,13.62
2022-11-11T11:21:57.423Z,13.40
2022-11-11T11:24:32.778Z,13.25
2022-11-11T11:27:07.119Z,13.18
2022-11-11T11:29:34.025Z,13.16
2022-11-11T11:32:21.860Z,13.23
2022-11-11T11:34:50.000Z,13.25
2022-11-11T11:37:19.434Z,13.15
2022-11-11T11:39:46.985Z,13.07
2022-11-11T11:42:38.333Z,13.13
2022-11-11T11:45:20.770Z,13.18
2022-11-11T11:48:16.534Z,13.24
2022-11-11T11:50:57.161Z,13.57
2022-11-11T11:53:34.908Z,13.68
2022-11-11T11:56:20.352Z,13.55
2022-11-11T11:59:05.391Z,13.59
2022-11-11T12:01:54.724Z,13.83
2022-11-11T12:04:30.742Z,13.95
2022-11-11T12:07:06.280Z,14.01
2022-11-11T12:09:51.912Z,14.13
2022-11-11T12:12:40.165Z,14.23
2022-11-11T12:15:07.154Z,14.32
2022-11-11T12:17:52.696Z,14.39
2022-11-11T12:20:46.107Z,14.41
2022-11-11T12:23:34.659Z,14.39
2022-11-11T12:26:18.185Z,14.22
2022-11-11T12:29:02.997Z,13.99
2022-11-11T12:31:36.052Z,13.75
2022-11-11T12:34:08.520Z,13.63
2022-11-11T12:36:43.464Z,13.51
2022-11-11T12:39:47.816Z,13.40
2022-11-11T12:42:37.185Z,13.43
2022-11-11T12:45:07.070Z,13.54
2022-11-11T12:47:49.008Z,13.67
2022-11-11T12:50:23.545Z,13.86
2022-11-11T12:53:23.937Z,13.89
2022-11-11T12:56:09.325Z,13.98
2022-11-11T12:58:48.565Z,13.91
2022-11-11T13:01:36.542Z,13.78
2022-11-11T13:04:25.172Z,13.65
2022-11-11T13:07:08.870Z,13.46
2022-11-11T13:10:03.148Z,13.27
2022-11-11T13:12:32.829Z,13.23
2022-11-11T13:15:25.345Z,13.20
2022-11-11T13:17:52.597Z,13.13
2022-11-11T13:20:44.639Z,13.05
2022-11-11T13:23:12.047Z,12.97
2022-11-11T13:25:50.948Z,12.86
2022-11-11T13:28:29.390Z,12.68
2022-11-11T13:31:20.034Z,12.61
2022-11-11T13:33:50.277Z,12.52
2022-11-11T13:36:21.515Z,12.48
2022-11-11T13:39:05.865Z,12.44
2022-11-11T13:41:39.373Z,12.39
2022-11-11T13:44:09.377Z,12.31
2022-11-11T13:46:50.096Z,12.26
2022-11-11T13:49:29.182Z,12.25
2022-11-11T13:52:01.347Z,12.23
2022-11-11T13:54:28.112Z,12.25
2022-11-11T13:57:04.687Z,12.25
2022-11-11T13:59:37.222Z,12.27
2022-11-11T14:02:19.228Z,12.23
2022-11-11T14:05:12.736Z,12.18
2022-11-11T14:07:48.643Z,12.14
2022-11-11T14:10:18.553Z,12.09
2022-11-11T14:12:56.425Z,12.00
2022-11-11T14:15:50.256Z,11.89
2022-11-11T14:18:19.931Z,11.78
2022-11-11T14:20:52.001Z,11.67
2022-11-11T14:23:18.690Z,11.55
2022-11-11T14:25:46.775Z,11.48
2022-11-11T14:28:39.060Z,11.36
2022-11-11T14:31:16.055Z,11.28
2022-11-11T14:33:51.432Z,11.23
2022-11-11T14:36:42.550Z,11.15
2022-11-11T14:39:37.447Z,11.09
2022-11-11T14:42:05.375Z,11.06
2022-11-11T14:44:32.381Z,10.95
2022-11-11T14:47:08.215Z,10.86
2022-11-11T14:49:44.291Z,10.79
2022-11-11T14:52:25.928Z,10.70
2022-11-11T14:55:02.306Z,10.63
2022-11-11T14:57:41.733Z,10.55
2022-11-11T15:00:16.118Z,10.51
2022-11-11T15:02:51.332Z,10.45
2022-11-11T15:05:31.117Z,10.34
2022-11-11T15:08:20.341Z,10.26
2022-11-11T15:11:01.727Z,10.16
2022-11-11T15:13:44.077Z,10.08
2022-11-11T15:16:17.269Z,10.00
2022-11-11T15:18:50.073Z,9.92
2022-11-11T15:21:30.778Z,9.84
2022-11-11T15:24:21.649Z,9.78
2022-11-11T15:27:02.783Z,9.71
2022-11-11T15:30:01.614Z,9.66
2022-11-11T15:33:00.893Z,9.60
2022-11-11T15:35:53.131Z,9.48
2022-11-11T15:38:21.050Z,9.41
2022-11-11T15:40:51.261Z,9.33
2022-11-11T15:43:24.845Z,9.30
2022-11-11T15:46:05.840Z,9.26
2022-11-11T15:48:42.388Z,9.29
2022-11-11T15:51:21.668Z,9.29
2022-11-11T15:53:49.563Z,9.32
2022-11-11T15:56:33.676Z,9.31
2022-11-11T15:59:23.390Z,9.30
2022-11-11T16:01:51.959Z,9.35
2022-11-11T16:07:20.496Z,9.34
2022-11-11T16:09:47.619Z,9.38
2022-11-11T16:12:20.544Z,9.33
2022-11-11T16:14:52.146Z,9.32
2022-11-11T16:17:19.876Z,9.30
2022-11-11T16:19:49.682Z,9.27
2022-11-11T16:22:32.364Z,9.25
2022-11-11T16:24:59.629Z,9.24
2022-11-11T16:27:30.808Z,9.22
2022-11-11T16:30:16.105Z,9.19
2022-11-11T16:32:43.188Z,9.18
2022-11-11T16:35:33.126Z,9.14
2022-11-11T16:38:00.280Z,9.14
2022-11-11T16:40:32.766Z,9.19
2022-11-11T16:43:20.275Z,9.24
2022-11-11T16:45:49.767Z,9.28
2022-11-11T16:48:37.922Z,9.23
2022-11-11T16:51:07.526Z,9.18
2022-11-11T16:53:36.285Z,9.05
2022-11-11T16:56:04.916Z,9.01
2022-11-11T16:58:32.109Z,8.97
2022-11-11T17:01:01.710Z,8.90
2022-11-11T17:03:29.589Z,8.86
2022-11-11T17:05:57.994Z,8.83
2022-11-11T17:08:45.428Z,8.73
2022-11-11T17:11:40.301Z,8.69
2022-11-11T17:14:07.300Z,8.64
2022-11-11T17:16:34.377Z,8.59
2022-11-11T17:19:02.579Z,8.59
2022-11-11T17:21:29.595Z,8.53
2022-11-11T17:23:56.335Z,8.56
2022-11-11T17:26:23.338Z,8.57
2022-11-11T17:28:50.399Z,8.58
2022-11-11T17:31:17.236Z,8.60
2022-11-11T17:33:44.282Z,8.56
2022-11-11T17:36:11.094Z,8.52
2022-11-11T17:38:38.542Z,8.55
2022-11-11T17:41:05.793Z,8.55
2022-11-11T17:43:33.435Z,8.57
2022-11-11T17:46:01.274Z,8.59
2022-11-11T17:48:28.334Z,8.56
2022-11-11T17:50:55.106Z,8.55
2022-11-11T17:53:22.202Z,8.51
2022-11-11T17:55:49.023Z,8.48
2022-11-11T17:58:16.174Z,8.45
2022-11-11T18:00:42.895Z,8.40
2022-11-11T18:03:09.972Z,8.37
2022-11-11T18:05:36.947Z,8.35
2022-11-11T18:08:04.285Z,8.33
2022-11-11T18:10:31.084Z,8.30
2022-11-11T18:12:58.734Z,8.29
2022-11-11T18:15:25.458Z,8.22
2022-11-11T18:17:52.572Z,8.21
2022-11-11T18:20:19.303Z,8.16
2022-11-11T18:22:46.329Z,8.15
2022-11-11T18:25:14.150Z,8.11
2022-11-11T18:27:41.201Z,8.12
2022-11-11T18:30:08.842Z,8.07
2022-11-11T18:32:35.878Z,8.06
2022-11-11T18:35:02.678Z,8.06
2022-11-11T18:37:29.760Z,8.04
2022-11-11T18:39:56.523Z,7.99
2022-11-11T18:42:23.699Z,7.98
2022-11-11T18:44:50.457Z,7.96
2022-11-11T18:47:17.516Z,7.91
2022-11-11T18:49:44.239Z,7.93
2022-11-11T18:52:11.304Z,7.94
2022-11-11T18:54:38.112Z,7.97
2022-11-11T18:57:05.147Z,8.01
2022-11-11T18:59:31.924Z,7.97
2022-11-11T19:01:58.993Z,7.96
2022-11-11T19:04:25.928Z,7.94
2022-11-11T19:06:53.268Z,7.91
2022-11-11T19:09:20.057Z,7.87
2022-11-11T19:11:47.356Z,7.82
2022-11-11T19:14:19.914Z,7.79
2022-11-11T19:16:48.716Z,7.69
2022-11-11T19:19:16.358Z,7.64
2022-11-11T19:21:43.376Z,7.66
2022-11-11T19:24:10.694Z,7.64
2022-11-11T19:26:37.788Z,7.62
2022-11-11T19:29:06.038Z,7.61
2022-11-11T19:31:33.427Z,7.62
2022-11-11T19:34:00.616Z,7.63
2022-11-11T19:36:29.579Z,7.60
2022-11-11T19:39:01.316Z,7.49
2022-11-11T19:41:31.347Z,7.47
2022-11-11T19:43:58.386Z,7.45
2022-11-11T19:46:27.935Z,7.43
2022-11-11T19:48:55.526Z,7.38
2022-11-11T19:51:24.244Z,7.41
2022-11-11T19:53:56.305Z,7.45
2022-11-11T19:56:28.640Z,7.46
2022-11-11T19:58:55.459Z,7.50
2022-11-11T20:01:25.411Z,7.54
2022-11-11T20:03:52.530Z,7.55
2022-11-11T20:06:29.083Z,7.58
2022-11-11T20:08:58.171Z,7.56
2022-11-11T20:11:26.457Z,7.51
2022-11-11T20:13:53.675Z,7.55
2022-11-11T20:16:21.028Z,7.55
2022-11-11T20:18:47.880Z,7.53
2022-11-11T20:21:15.193Z,7.52
2022-11-11T20:23:42.453Z,7.50
2022-11-11T20:26:15.177Z,7.56
2022-11-11T20:28:43.455Z,7.55
2022-11-11T20:31:12.808Z,7.57
2022-11-11T20:33:40.105Z,7.57
2022-11-11T20:36:09.820Z,7.58
2022-11-11T20:38:37.634Z,7.62
2022-11-11T20:41:11.591Z,7.63
2022-11-11T20:43:38.948Z,7.67
2022-11-11T20:46:07.089Z,7.67
2022-11-11T20:48:34.871Z,7.69
2022-11-11T20:51:10.265Z,7.78
2022-11-11T20:53:37.567Z,7.81
2022-11-11T20:56:11.240Z,7.85
2022-11-11T20:58:39.565Z,7.89
2022-11-11T21:01:08.544Z,7.89
2022-11-11T21:03:35.829Z,7.95
2022-11-11T21:06:07.838Z,7.97
2022-11-11T21:08:37.088Z,7.97
2022-11-11T21:11:04.886Z,8.02
2022-11-11T21:13:32.722Z,8.02
2022-11-11T21:16:20.650Z,8.04
2022-11-11T21:18:49.067Z,8.05
2022-11-11T21:21:20.199Z,8.10
2022-11-11T21:23:48.006Z,8.17
2022-11-11T21:26:17.342Z,8.22
2022-11-11T21:28:45.964Z,8.24
2022-11-11T21:31:40.169Z,8.25
2022-11-11T21:34:10.023Z,8.28
2022-11-11T21:36:39.540Z,8.30
2022-11-11T21:39:07.738Z,8.29
2022-11-11T21:41:37.014Z,8.30
2022-11-11T21:44:05.642Z,8.27
2022-11-11T21:46:34.701Z,8.33
2022-11-11T21:49:02.127Z,8.36
2022-11-11T21:51:31.169Z,8.35
2022-11-11T21:54:02.482Z,8.34
2022-11-11T21:56:31.920Z,8.40
2022-11-11T21:59:01.123Z,8.42
2022-11-11T22:01:31.116Z,8.47
2022-11-11T22:04:04.814Z,8.49
2022-11-11T22:06:32.326Z,8.51
2022-11-11T22:09:00.367Z,8.55
2022-11-11T22:11:30.668Z,8.58
2022-11-11T22:13:58.924Z,8.60
2022-11-11T22:16:28.443Z,8.62
2022-11-11T22:19:00.976Z,8.63
2022-11-11T22:21:32.833Z,8.64
2022-11-11T22:24:03.182Z,8.64
2022-11-11T22:26:35.179Z,8.65
2022-11-11T22:29:03.744Z,8.73
2022-11-11T22:31:34.518Z,8.76
2022-11-11T22:34:03.151Z,8.84
2022-11-11T22:36:32.445Z,8.92
2022-11-11T22:39:00.224Z,9.02
2022-11-11T22:41:30.204Z,9.10
2022-11-11T22:44:00.282Z,9.13
2022-11-11T22:46:29.497Z,9.21
2022-11-11T22:48:58.604Z,9.27
2022-11-11T22:51:28.143Z,9.37
2022-11-11T22:53:56.234Z,9.35
2022-11-11T22:56:23.602Z,9.41
2022-11-11T22:58:50.935Z,9.43
2022-11-11T23:01:30.025Z,9.42
2022-11-11T23:04:00.256Z,9.46
2022-11-11T23:06:38.921Z,9.43
2022-11-11T23:09:06.928Z,9.44
2022-11-11T23:11:36.195Z,9.47
2022-11-11T23:14:07.231Z,9.40
2022-11-11T23:16:34.872Z,9.45
2022-11-11T23:19:04.316Z,9.41
2022-11-11T23:21:31.839Z,9.41
2022-11-11T23:23:59.120Z,9.43
2022-11-11T23:26:28.515Z,9.44
2022-11-11T23:28:55.585Z,9.42
2022-11-11T23:31:26.005Z,9.43
2022-11-11T23:33:54.020Z,9.43
2022-11-11T23:36:23.087Z,9.41
2022-11-11T23:38:50.509Z,9.42
2022-11-11T23:41:17.871Z,9.40
2022-11-11T23:43:45.255Z,9.43
2022-11-11T23:46:12.326Z,9.41
2022-11-11T23:48:39.146Z,9.42
2022-11-11T23:51:06.292Z,9.42
2022-11-11T23:53:33.842Z,9.41
2022-11-11T23:56:01.612Z,9.43
2022-11-11T23:58:29.007Z,9.42
